Time;durP1;ratioP1;P1;durP2;ratioP2;P2;SDS_P1;SDS_P2;PMS_P1;PMS_P2;Temp;Humidity;BMP_temperature;BMP_pressure;BME280_temperature;BME280_humidity;BME280_pressure;Samples;Min_cycle;Max_cycle;Signal;HPM_P1;HPM_P2
2022/09/19 00:01:26;;;;;;;0.70;0.70;;;;;;;;;;5074249;28;20211;-85
2022/09/19 00:03:55;;;;;;;0.60;0.60;;;;;;;;;;5091479;28;20198;-85
2022/09/19 00:06:22;;;;;;;0.70;0.70;;;;;;;;;;5092007;28;20219;-85
2022/09/19 00:08:50;;;;;;;0.50;0.50;;;;;;;;;;5091736;28;20228;-84
2022/09/19 00:11:19;;;;;;;0.60;0.60;;;;;;;;;;5092281;28;20612;-85
2022/09/19 00:13:47;;;;;;;0.70;0.70;;;;;;;;;;5091796;28;20239;-85
2022/09/19 00:16:21;;;;;;;0.50;0.50;;;;;;;;;;5091512;28;20693;-85
2022/09/19 00:18:49;;;;;;;0.70;0.70;;;;;;;;;;5091097;28;20206;-85
2022/09/19 00:21:20;;;;;;;0.47;0.47;;;;;;;;;;5091459;28;20253;-85
2022/09/19 00:26:32;;;;;;;0.67;0.67;;;;;;;;;;5091575;28;20330;-85
2022/09/19 00:28:59;;;;;;;0.70;0.70;;;;;;;;;;5091550;28;20296;-84
2022/09/19 00:31:27;;;;;;;0.67;0.67;;;;;;;;;;5091167;28;20212;-84
2022/09/19 00:33:55;;;;;;;0.70;0.70;;;;;;;;;;5091271;28;20208;-84
2022/09/19 00:36:22;;;;;;;0.90;0.90;;;;;;;;;;5091424;28;20204;-84
2022/09/19 00:38:49;;;;;;;0.80;0.80;;;;;;;;;;5091325;28;20201;-84
2022/09/19 00:41:17;;;;;;;0.60;0.60;;;;;;;;;;5091288;28;20196;-84
2022/09/19 00:43:49;;;;;;;0.63;0.63;;;;;;;;;;5090949;28;20211;-85
2022/09/19 00:46:16;;;;;;;0.60;0.60;;;;;;;;;;5091520;28;20200;-86
2022/09/19 00:48:45;;;;;;;0.73;0.73;;;;;;;;;;5084690;28;20725;-85
2022/09/19 00:51:15;;;;;;;0.60;0.60;;;;;;;;;;5086134;28;20258;-84
2022/09/19 00:53:42;;;;;;;0.70;0.70;;;;;;;;;;5090867;28;20220;-83
2022/09/19 00:56:10;;;;;;;0.50;0.50;;;;;;;;;;5091289;28;20234;-84
2022/09/19 00:58:39;;;;;;;0.60;0.60;;;;;;;;;;5077151;28;20271;-84
2022/09/19 01:01:08;;;;;;;0.50;0.50;;;;;;;;;;5091112;28;20207;-84
2022/09/19 01:03:35;;;;;;;0.50;0.50;;;;;;;;;;5090476;28;20584;-84
2022/09/19 01:06:10;;;;;;;1.43;0.70;;;;;;;;;;5091007;28;20208;-85
2022/09/19 01:08:50;;;;;;;0.63;0.63;;;;;;;;;;5090477;28;20224;-84
2022/09/19 01:11:35;;;;;;;0.70;0.70;;;;;;;;;;5079009;28;20203;-84
2022/09/19 01:14:07;;;;;;;0.70;0.70;;;;;;;;;;5077526;28;20200;-84
2022/09/19 01:16:42;;;;;;;0.50;0.50;;;;;;;;;;5090816;28;20200;-84
2022/09/19 01:19:23;;;;;;;0.50;0.50;;;;;;;;;;5090736;28;20779;-84
2022/09/19 01:21:55;;;;;;;0.60;0.60;;;;;;;;;;5090675;28;20213;-84
2022/09/19 01:24:50;;;;;;;0.70;0.70;;;;;;;;;;5090595;28;20199;-84
2022/09/19 01:27:30;;;;;;;0.53;0.53;;;;;;;;;;5090553;28;20200;-84
2022/09/19 01:30:01;;;;;;;0.50;0.50;;;;;;;;;;5087169;28;20287;-85
2022/09/19 01:32:31;;;;;;;0.63;0.63;;;;;;;;;;5080293;28;20566;-84
2022/09/19 01:35:02;;;;;;;0.60;0.60;;;;;;;;;;5090373;28;20670;-84
2022/09/19 01:37:32;;;;;;;0.40;0.40;;;;;;;;;;5090240;28;20199;-84
2022/09/19 01:40:02;;;;;;;0.63;0.63;;;;;;;;;;5090662;28;20223;-84
2022/09/19 01:42:29;;;;;;;0.50;0.50;;;;;;;;;;5090643;28;20203;-85
2022/09/19 01:44:55;;;;;;;0.60;0.60;;;;;;;;;;5090162;28;20222;-84
2022/09/19 01:47:31;;;;;;;0.53;0.53;;;;;;;;;;5090545;28;20254;-85
2022/09/19 01:50:04;;;;;;;0.57;0.57;;;;;;;;;;5089800;28;20204;-84
2022/09/19 01:52:48;;;;;;;1.33;0.50;;;;;;;;;;5090834;28;20578;-85
2022/09/19 01:55:20;;;;;;;0.50;0.50;;;;;;;;;;5090811;28;20206;-85
2022/09/19 01:57:52;;;;;;;0.87;0.50;;;;;;;;;;5090475;28;20204;-84
2022/09/19 02:00:22;;;;;;;0.40;0.40;;;;;;;;;;5090056;28;20204;-85
2022/09/19 02:03:01;;;;;;;0.70;0.70;;;;;;;;;;5090394;28;20204;-84
2022/09/19 02:05:36;;;;;;;0.63;0.63;;;;;;;;;;5090057;28;20204;-85
2022/09/19 02:08:07;;;;;;;0.47;0.47;;;;;;;;;;5090609;28;20319;-84
2022/09/19 02:10:40;;;;;;;0.50;0.50;;;;;;;;;;5090011;28;20254;-84
2022/09/19 02:13:09;;;;;;;0.63;0.63;;;;;;;;;;5089964;28;20264;-84
2022/09/19 02:15:36;;;;;;;0.60;0.60;;;;;;;;;;5090383;28;20570;-84
2022/09/19 02:18:09;;;;;;;0.70;0.70;;;;;;;;;;5090254;28;20269;-84
2022/09/19 02:20:39;;;;;;;0.53;0.53;;;;;;;;;;5090132;28;20591;-84
2022/09/19 02:23:11;;;;;;;0.60;0.60;;;;;;;;;;5076636;28;20201;-84
2022/09/19 02:25:38;;;;;;;0.60;0.60;;;;;;;;;;5090072;28;20231;-84
2022/09/19 02:28:07;;;;;;;0.47;0.47;;;;;;;;;;5089864;28;20644;-85
2022/09/19 02:30:35;;;;;;;0.60;0.60;;;;;;;;;;5089803;28;20213;-85
2022/09/19 02:33:07;;;;;;;0.77;0.77;;;;;;;;;;5088592;28;20292;-84
2022/09/19 02:35:43;;;;;;;0.50;0.50;;;;;;;;;;5077155;28;20624;-85
2022/09/19 02:38:16;;;;;;;0.60;0.60;;;;;;;;;;5087481;28;20208;-85
2022/09/19 02:40:49;;;;;;;0.40;0.40;;;;;;;;;;5081611;28;20721;-86
2022/09/19 02:43:20;;;;;;;0.47;0.47;;;;;;;;;;5091209;28;20591;-85
2022/09/19 02:45:52;;;;;;;0.40;0.40;;;;;;;;;;5093331;28;20641;-84
2022/09/19 02:48:23;;;;;;;0.60;0.60;;;;;;;;;;5093404;28;20255;-85
2022/09/19 02:50:59;;;;;;;0.50;0.50;;;;;;;;;;5093526;28;20211;-84
2022/09/19 02:53:29;;;;;;;0.60;0.60;;;;;;;;;;5093573;28;20206;-85
2022/09/19 02:55:59;;;;;;;0.60;0.60;;;;;;;;;;5093553;28;20602;-84
2022/09/19 02:58:28;;;;;;;0.43;0.43;;;;;;;;;;5093228;28;20208;-84
2022/09/19 03:01:00;;;;;;;0.53;0.53;;;;;;;;;;5092722;28;20728;-85
2022/09/19 03:06:18;;;;;;;0.50;0.50;;;;;;;;;;5093345;28;20214;-85
2022/09/19 03:08:48;;;;;;;0.50;0.50;;;;;;;;;;5081040;28;20220;-85
2022/09/19 03:11:18;;;;;;;0.90;0.90;;;;;;;;;;5091381;28;20621;-84
2022/09/19 03:13:45;;;;;;;0.60;0.60;;;;;;;;;;5092756;28;20269;-87
2022/09/19 03:16:15;;;;;;;0.50;0.50;;;;;;;;;;5093071;28;20200;-87
2022/09/19 03:18:43;;;;;;;0.53;0.53;;;;;;;;;;5090285;28;20204;-78
2022/09/19 03:21:11;;;;;;;0.60;0.60;;;;;;;;;;5092096;28;20207;-79
2022/09/19 03:23:41;;;;;;;0.90;0.90;;;;;;;;;;5092377;28;20208;-78
2022/09/19 03:26:10;;;;;;;0.70;0.70;;;;;;;;;;5092649;28;20208;-78
2022/09/19 03:28:38;;;;;;;0.70;0.70;;;;;;;;;;5092077;28;20309;-79
2022/09/19 03:31:04;;;;;;;0.73;0.73;;;;;;;;;;5092672;28;20297;-79
2022/09/19 03:33:31;;;;;;;0.70;0.70;;;;;;;;;;5091989;28;20201;-83
2022/09/19 03:35:59;;;;;;;0.70;0.70;;;;;;;;;;5092303;28;20639;-82
2022/09/19 03:38:26;;;;;;;0.60;0.60;;;;;;;;;;5091886;28;20265;-81
2022/09/19 03:40:54;;;;;;;0.50;0.50;;;;;;;;;;5092394;28;20310;-82
2022/09/19 03:43:21;;;;;;;0.73;0.47;;;;;;;;;;5092594;28;20200;-81
2022/09/19 03:45:48;;;;;;;0.40;0.40;;;;;;;;;;5092343;28;20287;-81
2022/09/19 03:48:15;;;;;;;0.93;0.60;;;;;;;;;;5092442;28;20227;-81
2022/09/19 03:50:42;;;;;;;0.70;0.70;;;;;;;;;;5090596;28;20590;-81
2022/09/19 03:53:09;;;;;;;0.50;0.50;;;;;;;;;;5092004;28;20200;-81
2022/09/19 03:55:38;;;;;;;0.50;0.50;;;;;;;;;;5091616;28;20208;-79
2022/09/19 03:58:06;;;;;;;0.60;0.60;;;;;;;;;;5089871;28;20239;-79
2022/09/19 04:00:33;;;;;;;0.40;0.40;;;;;;;;;;5091795;28;20695;-80
2022/09/19 04:02:59;;;;;;;0.60;0.60;;;;;;;;;;5091541;28;20666;-80
2022/09/19 04:05:26;;;;;;;0.40;0.40;;;;;;;;;;5091581;28;20200;-80
2022/09/19 04:07:54;;;;;;;0.60;0.60;;;;;;;;;;5091234;28;20211;-80
2022/09/19 04:10:21;;;;;;;0.60;0.60;;;;;;;;;;5090284;28;20232;-80
2022/09/19 04:12:50;;;;;;;0.60;0.60;;;;;;;;;;5079044;28;20200;-82
2022/09/19 04:15:18;;;;;;;0.70;0.70;;;;;;;;;;5090849;28;20200;-81
2022/09/19 04:17:45;;;;;;;0.70;0.70;;;;;;;;;;5091650;28;20210;-80
2022/09/19 04:20:13;;;;;;;0.60;0.60;;;;;;;;;;5090959;28;20200;-81
2022/09/19 04:22:40;;;;;;;0.60;0.60;;;;;;;;;;5090865;28;20204;-81
2022/09/19 04:25:10;;;;;;;0.77;0.77;;;;;;;;;;5090754;28;20689;-81
2022/09/19 04:27:37;;;;;;;0.60;0.60;;;;;;;;;;5088177;28;20204;-81
2022/09/19 04:30:05;;;;;;;0.60;0.60;;;;;;;;;;5086044;28;20235;-81
2022/09/19 04:32:34;;;;;;;0.60;0.60;;;;;;;;;;5091485;28;20639;-82
2022/09/19 04:35:00;;;;;;;0.47;0.47;;;;;;;;;;5090151;28;20215;-81
2022/09/19 04:37:29;;;;;;;0.63;0.63;;;;;;;;;;5091553;28;20220;-80
2022/09/19 04:39:56;;;;;;;0.60;0.60;;;;;;;;;;5091495;28;20275;-81
2022/09/19 04:42:22;;;;;;;0.70;0.70;;;;;;;;;;5091602;28;20196;-81
2022/09/19 04:44:53;;;;;;;0.70;0.70;;;;;;;;;;5091260;28;20211;-80
2022/09/19 04:47:20;;;;;;;0.50;0.50;;;;;;;;;;5090638;28;20207;-81
2022/09/19 04:49:48;;;;;;;0.70;0.70;;;;;;;;;;5090869;28;20289;-81
2022/09/19 04:52:15;;;;;;;0.63;0.63;;;;;;;;;;5090810;28;20204;-81
2022/09/19 04:54:42;;;;;;;0.53;0.53;;;;;;;;;;5089466;28;20200;-80
2022/09/19 04:57:09;;;;;;;2.43;2.17;;;;;;;;;;5089892;28;20287;-81
2022/09/19 04:59:37;;;;;;;0.60;0.60;;;;;;;;;;5090103;28;20200;-80
2022/09/19 05:02:08;;;;;;;0.87;0.87;;;;;;;;;;5090902;28;20208;-81
2022/09/19 05:04:36;;;;;;;0.80;0.80;;;;;;;;;;5090726;28;20630;-81
2022/09/19 05:07:04;;;;;;;0.80;0.80;;;;;;;;;;5089729;28;20204;-81
2022/09/19 05:09:31;;;;;;;0.57;0.57;;;;;;;;;;5090709;28;20220;-81
2022/09/19 05:11:57;;;;;;;0.90;0.90;;;;;;;;;;5091034;28;20269;-81
2022/09/19 05:14:25;;;;;;;0.90;0.90;;;;;;;;;;5090148;28;20250;-81
2022/09/19 05:16:52;;;;;;;0.63;0.63;;;;;;;;;;5091016;28;20606;-81
2022/09/19 05:19:21;;;;;;;0.60;0.60;;;;;;;;;;5090954;28;20224;-81
2022/09/19 05:21:49;;;;;;;0.97;0.80;;;;;;;;;;5090502;28;20203;-80
2022/09/19 05:24:18;;;;;;;0.60;0.60;;;;;;;;;;5089650;28;20196;-81
2022/09/19 05:26:45;;;;;;;0.67;0.67;;;;;;;;;;5090432;28;20204;-81
2022/09/19 05:29:13;;;;;;;0.80;0.80;;;;;;;;;;5090277;28;20329;-80
2022/09/19 05:31:40;;;;;;;0.50;0.50;;;;;;;;;;5090481;28;20196;-80
2022/09/19 05:34:09;;;;;;;0.60;0.60;;;;;;;;;;5090439;28;20204;-80
2022/09/19 05:36:36;;;;;;;0.70;0.70;;;;;;;;;;5090282;28;20253;-80
2022/09/19 05:39:03;;;;;;;0.47;0.47;;;;;;;;;;5090481;28;20196;-80
2022/09/19 05:41:31;;;;;;;0.70;0.70;;;;;;;;;;5090239;28;20189;-81
2022/09/19 05:43:58;;;;;;;0.80;0.80;;;;;;;;;;5076788;28;20208;-81
2022/09/19 05:46:24;;;;;;;0.60;0.60;;;;;;;;;;5090735;28;20223;-80
2022/09/19 05:48:51;;;;;;;0.80;0.80;;;;;;;;;;5088435;28;20626;-80
2022/09/19 05:51:18;;;;;;;0.70;0.70;;;;;;;;;;5081026;28;20209;-81
2022/09/19 05:53:53;;;;;;;0.67;0.67;;;;;;;;;;5089872;28;20203;-81
2022/09/19 05:56:20;;;;;;;0.60;0.60;;;;;;;;;;5090539;28;20200;-80
2022/09/19 05:58:49;;;;;;;0.90;0.90;;;;;;;;;;5089978;28;20232;-80
2022/09/19 06:01:16;;;;;;;0.73;0.73;;;;;;;;;;5090381;28;20617;-80
2022/09/19 06:03:44;;;;;;;0.70;0.70;;;;;;;;;;5089931;28;20204;-81
2022/09/19 06:06:13;;;;;;;1.80;0.70;;;;;;;;;;5090228;28;20240;-81
2022/09/19 06:08:42;;;;;;;0.90;0.90;;;;;;;;;;5071977;28;20232;-80
2022/09/19 06:11:10;;;;;;;0.80;0.80;;;;;;;;;;5090079;28;20586;-80
2022/09/19 06:16:22;;;;;;;0.67;0.67;;;;;;;;;;5077039;28;20333;-81
2022/09/19 06:18:49;;;;;;;0.70;0.70;;;;;;;;;;5091848;28;20211;-80
2022/09/19 06:21:17;;;;;;;0.60;0.60;;;;;;;;;;5093545;28;20192;-81
2022/09/19 06:23:44;;;;;;;0.70;0.70;;;;;;;;;;5094025;28;20305;-81
2022/09/19 06:26:11;;;;;;;0.60;0.60;;;;;;;;;;5093563;28;20202;-81
2022/09/19 06:28:38;;;;;;;0.70;0.70;;;;;;;;;;5093845;28;20220;-81
2022/09/19 06:31:07;;;;;;;0.63;0.63;;;;;;;;;;5093510;28;20312;-81
2022/09/19 06:33:35;;;;;;;0.90;0.90;;;;;;;;;;5093545;28;20192;-81
2022/09/19 06:36:03;;;;;;;0.83;0.73;;;;;;;;;;5094030;28;20200;-80
2022/09/19 06:38:31;;;;;;;0.63;0.63;;;;;;;;;;5093311;28;20196;-81
2022/09/19 06:40:58;;;;;;;0.60;0.60;;;;;;;;;;5093373;28;20207;-81
2022/09/19 06:43:26;;;;;;;0.50;0.50;;;;;;;;;;5093586;28;20201;-80
2022/09/19 06:45:53;;;;;;;0.50;0.50;;;;;;;;;;5093311;28;20262;-81
2022/09/19 06:48:20;;;;;;;0.50;0.50;;;;;;;;;;5091688;28;20261;-81
2022/09/19 06:50:48;;;;;;;0.77;0.77;;;;;;;;;;5091981;28;20228;-80
2022/09/19 06:53:15;;;;;;;1.00;1.00;;;;;;;;;;5085712;28;20204;-81
2022/09/19 06:55:42;;;;;;;0.60;0.60;;;;;;;;;;5092883;28;20204;-81
2022/09/19 06:58:11;;;;;;;0.80;0.80;;;;;;;;;;5093271;28;20208;-81
2022/09/19 07:00:40;;;;;;;0.50;0.50;;;;;;;;;;5092693;28;20196;-81
2022/09/19 07:03:09;;;;;;;0.57;0.57;;;;;;;;;;5093413;28;20204;-82
2022/09/19 07:05:37;;;;;;;0.50;0.50;;;;;;;;;;5092879;28;20289;-81
2022/09/19 07:08:06;;;;;;;0.80;0.80;;;;;;;;;;5093428;28;20204;-80
2022/09/19 07:10:33;;;;;;;0.60;0.60;;;;;;;;;;5092642;28;20737;-80
2022/09/19 07:13:01;;;;;;;0.80;0.80;;;;;;;;;;5093100;28;20212;-81
2022/09/19 07:15:28;;;;;;;0.70;0.70;;;;;;;;;;5092708;28;20236;-81
2022/09/19 07:17:56;;;;;;;0.57;0.57;;;;;;;;;;5092924;28;20288;-80
2022/09/19 07:20:23;;;;;;;0.60;0.60;;;;;;;;;;5093074;28;20213;-81
2022/09/19 07:22:59;;;;;;;0.60;0.60;;;;;;;;;;5092765;28;20211;-80
2022/09/19 07:25:27;;;;;;;1.20;0.80;;;;;;;;;;5092465;28;20294;-81
2022/09/19 07:27:56;;;;;;;0.93;0.93;;;;;;;;;;5092227;28;20624;-81
2022/09/19 07:30:23;;;;;;;2.07;0.77;;;;;;;;;;5092012;28;20220;-81
2022/09/19 07:32:49;;;;;;;0.70;0.70;;;;;;;;;;5092464;28;20205;-80
2022/09/19 07:35:16;;;;;;;0.63;0.63;;;;;;;;;;5074689;28;20206;-80
2022/09/19 07:37:49;;;;;;;1.10;1.10;;;;;;;;;;5092897;28;20208;-81
2022/09/19 07:40:19;;;;;;;0.80;0.80;;;;;;;;;;5091589;28;20584;-80
2022/09/19 07:42:47;;;;;;;1.20;1.20;;;;;;;;;;5092726;28;20208;-81
2022/09/19 07:45:14;;;;;;;0.60;0.60;;;;;;;;;;5092623;28;20209;-80
2022/09/19 07:47:44;;;;;;;0.60;0.60;;;;;;;;;;5092279;28;20284;-81
2022/09/19 07:50:14;;;;;;;0.77;0.77;;;;;;;;;;5092049;28;20301;-81
2022/09/19 07:52:41;;;;;;;0.87;0.80;;;;;;;;;;5091834;28;20208;-81
2022/09/19 07:55:10;;;;;;;0.90;0.90;;;;;;;;;;5092153;28;20210;-80
2022/09/19 07:57:37;;;;;;;0.90;0.90;;;;;;;;;;5092175;28;20731;-80
2022/09/19 08:00:07;;;;;;;0.70;0.70;;;;;;;;;;5091994;28;20218;-80
2022/09/19 08:02:34;;;;;;;0.80;0.80;;;;;;;;;;5091833;28;20203;-80
2022/09/19 08:05:00;;;;;;;1.20;0.80;;;;;;;;;;5091860;28;20227;-80
2022/09/19 08:07:27;;;;;;;0.70;0.70;;;;;;;;;;5091675;28;20199;-80
2022/09/19 08:09:54;;;;;;;0.60;0.60;;;;;;;;;;5091435;28;20253;-80
2022/09/19 08:12:22;;;;;;;0.63;0.63;;;;;;;;;;5091866;28;20208;-82
2022/09/19 08:14:49;;;;;;;0.70;0.70;;;;;;;;;;5091635;28;20207;-80
2022/09/19 08:17:19;;;;;;;0.70;0.70;;;;;;;;;;5091807;28;20211;-80
2022/09/19 08:19:46;;;;;;;0.70;0.70;;;;;;;;;;5091250;28;20606;-80
2022/09/19 08:22:13;;;;;;;1.50;1.13;;;;;;;;;;5091521;28;20287;-80
2022/09/19 08:24:40;;;;;;;0.80;0.80;;;;;;;;;;5091462;28;20210;-81
2022/09/19 08:27:06;;;;;;;1.30;0.73;;;;;;;;;;5091775;28;20205;-80
2022/09/19 08:29:33;;;;;;;0.57;0.57;;;;;;;;;;5091159;28;20227;-80
2022/09/19 08:32:00;;;;;;;0.70;0.70;;;;;;;;;;5090843;28;20717;-81
2022/09/19 08:34:29;;;;;;;0.60;0.60;;;;;;;;;;5091096;28;20687;-80
2022/09/19 08:36:58;;;;;;;1.07;1.07;;;;;;;;;;5091326;28;20203;-80
2022/09/19 08:39:25;;;;;;;0.53;0.53;;;;;;;;;;5090887;28;20296;-81
2022/09/19 08:42:13;;;;;;;0.60;0.60;;;;;;;;;;5090256;28;20636;-80
2022/09/19 08:44:54;;;;;;;0.50;0.50;;;;;;;;;;5091273;28;20266;-80
2022/09/19 08:47:24;;;;;;;0.70;0.70;;;;;;;;;;5091444;28;20203;-80
2022/09/19 08:49:55;;;;;;;0.70;0.70;;;;;;;;;;5091005;28;20292;-80
2022/09/19 08:52:33;;;;;;;0.50;0.50;;;;;;;;;;5090892;28;20192;-80
2022/09/19 08:55:01;;;;;;;0.80;0.80;;;;;;;;;;5090837;28;20261;-81
2022/09/19 08:57:31;;;;;;;0.60;0.60;;;;;;;;;;5090771;28;20207;-80
2022/09/19 09:00:00;;;;;;;1.40;0.70;;;;;;;;;;5090920;28;20257;-80
2022/09/19 09:02:34;;;;;;;3.23;0.77;;;;;;;;;;5090576;28;20207;-81
2022/09/19 09:05:02;;;;;;;0.57;0.57;;;;;;;;;;5090865;28;20202;-80
2022/09/19 09:07:38;;;;;;;0.40;0.40;;;;;;;;;;5090678;28;20207;-80
2022/09/19 09:10:21;;;;;;;0.50;0.50;;;;;;;;;;5090354;28;20204;-81
2022/09/19 09:12:58;;;;;;;0.60;0.60;;;;;;;;;;5090387;28;20200;-81
2022/09/19 09:15:28;;;;;;;0.60;0.60;;;;;;;;;;5090457;28;20265;-81
2022/09/19 09:18:07;;;;;;;0.63;0.63;;;;;;;;;;5090792;28;20196;-81
2022/09/19 09:20:53;;;;;;;1.40;0.77;;;;;;;;;;5090588;28;20207;-80
2022/09/19 09:23:23;;;;;;;0.50;0.50;;;;;;;;;;5078002;28;20211;-80
2022/09/19 09:25:50;;;;;;;0.37;0.37;;;;;;;;;;5090189;28;20207;-80
2022/09/19 09:28:26;;;;;;;0.30;0.30;;;;;;;;;;5090712;28;20235;-81
2022/09/19 09:30:58;;;;;;;0.70;0.70;;;;;;;;;;5090061;28;20227;-81
2022/09/19 09:33:28;;;;;;;0.40;0.40;;;;;;;;;;5090618;28;20200;-81
2022/09/19 09:36:01;;;;;;;0.43;0.43;;;;;;;;;;5090512;28;20618;-80
2022/09/19 09:38:31;;;;;;;0.40;0.40;;;;;;;;;;5090266;28;20200;-81
2022/09/19 09:43:59;;;;;;;0.60;0.60;;;;;;;;;;5083790;28;20222;-81
2022/09/19 09:46:34;;;;;;;0.67;0.67;;;;;;;;;;5090579;28;20223;-80
2022/09/19 09:49:01;;;;;;;0.60;0.60;;;;;;;;;;5075984;28;20260;-81
2022/09/19 09:51:39;;;;;;;0.70;0.70;;;;;;;;;;5090333;28;20225;-81
2022/09/19 09:57:06;;;;;;;0.50;0.50;;;;;;;;;;5049821;28;20203;-81
2022/09/19 10:05:16;;;;;;;0.67;0.67;;;;;;;;;;5094321;28;20211;-81
2022/09/19 10:07:50;;;;;;;0.60;0.60;;;;;;;;;;5094271;28;20227;-80
2022/09/19 10:10:19;;;;;;;0.50;0.50;;;;;;;;;;5093613;28;20200;-82
2022/09/19 10:12:50;;;;;;;0.60;0.57;;;;;;;;;;5094120;28;20204;-81
2022/09/19 10:15:20;;;;;;;0.60;0.60;;;;;;;;;;5093908;28;20232;-83
2022/09/19 10:17:50;;;;;;;0.70;0.70;;;;;;;;;;5094035;28;20253;-82
2022/09/19 10:20:20;;;;;;;0.50;0.50;;;;;;;;;;5093749;28;20196;-82
2022/09/19 10:22:49;;;;;;;0.70;0.70;;;;;;;;;;5093808;28;20208;-81
2022/09/19 10:25:18;;;;;;;0.90;0.90;;;;;;;;;;5094145;28;20215;-81
2022/09/19 10:27:49;;;;;;;0.60;0.60;;;;;;;;;;5093879;28;20299;-81
2022/09/19 10:30:18;;;;;;;0.60;0.60;;;;;;;;;;5093863;28;20253;-83
2022/09/19 10:32:45;;;;;;;0.80;0.80;;;;;;;;;;5093994;28;20211;-82
2022/09/19 10:35:26;;;;;;;0.50;0.50;;;;;;;;;;5093383;28;20625;-82
2022/09/19 10:37:58;;;;;;;0.70;0.70;;;;;;;;;;5093604;28;20723;-82
2022/09/19 10:40:25;;;;;;;0.70;0.70;;;;;;;;;;5093339;28;20197;-82
2022/09/19 10:42:54;;;;;;;0.90;0.90;;;;;;;;;;5093363;28;20204;-81
2022/09/19 10:45:25;;;;;;;0.63;0.63;;;;;;;;;;5093462;28;20204;-82
2022/09/19 10:47:55;;;;;;;0.50;0.50;;;;;;;;;;5093249;28;20242;-83
2022/09/19 10:50:22;;;;;;;0.53;0.53;;;;;;;;;;5092328;28;20204;-83
2022/09/19 10:52:50;;;;;;;0.67;0.67;;;;;;;;;;5093366;28;20233;-83
2022/09/19 10:55:21;;;;;;;1.00;1.00;;;;;;;;;;5093296;28;20204;-82
2022/09/19 10:57:54;;;;;;;2.23;0.90;;;;;;;;;;5093335;28;20200;-81
2022/09/19 11:00:25;;;;;;;1.07;1.07;;;;;;;;;;5092552;28;20283;-82
2022/09/19 11:03:00;;;;;;;0.70;0.70;;;;;;;;;;5093453;28;20226;-82
2022/09/19 11:05:29;;;;;;;1.27;0.80;;;;;;;;;;5092339;28;20204;-82
2022/09/19 11:07:59;;;;;;;0.80;0.77;;;;;;;;;;5093298;28;20579;-82
2022/09/19 11:10:37;;;;;;;0.60;0.60;;;;;;;;;;5092700;28;20266;-84
2022/09/19 11:13:08;;;;;;;0.80;0.80;;;;;;;;;;5093065;28;20210;-81
2022/09/19 11:15:55;;;;;;;0.90;0.90;;;;;;;;;;5092955;28;20204;-83
2022/09/19 11:18:27;;;;;;;1.20;0.70;;;;;;;;;;5092620;28;20196;-83
2022/09/19 11:20:58;;;;;;;0.80;0.80;;;;;;;;;;5092931;28;20208;-82
2022/09/19 11:23:52;;;;;;;0.63;0.63;;;;;;;;;;5092657;28;20357;-82
2022/09/19 11:26:27;;;;;;;0.93;0.93;;;;;;;;;;5092661;28;20211;-83
2022/09/19 11:29:06;;;;;;;0.70;0.70;;;;;;;;;;5092148;28;20232;-82
2022/09/19 11:31:43;;;;;;;0.70;0.70;;;;;;;;;;5092082;28;20226;-83
2022/09/19 11:34:16;;;;;;;0.60;0.60;;;;;;;;;;5092821;28;20624;-82
2022/09/19 11:36:52;;;;;;;0.60;0.60;;;;;;;;;;5092033;28;20208;-82
2022/09/19 11:39:24;;;;;;;0.53;0.53;;;;;;;;;;5092579;28;20204;-82
2022/09/19 11:42:02;;;;;;;0.67;0.60;;;;;;;;;;5092551;28;20603;-82
2022/09/19 11:44:49;;;;;;;0.50;0.50;;;;;;;;;;5092250;28;20273;-83
2022/09/19 11:47:30;;;;;;;0.50;0.50;;;;;;;;;;5092003;28;20200;-83
2022/09/19 11:50:20;;;;;;;0.50;0.50;;;;;;;;;;5092183;28;20587;-83
2022/09/19 11:52:58;;;;;;;0.60;0.60;;;;;;;;;;5074998;28;20224;-82
2022/09/19 11:55:35;;;;;;;0.60;0.60;;;;;;;;;;5092053;28;20211;-82
2022/09/19 11:58:08;;;;;;;0.40;0.40;;;;;;;;;;5092064;28;20199;-83
2022/09/19 12:00:45;;;;;;;0.70;0.70;;;;;;;;;;5091817;28;20204;-82
2022/09/19 12:03:26;;;;;;;0.50;0.50;;;;;;;;;;5092492;28;20234;-82
2022/09/19 12:06:04;;;;;;;0.83;0.83;;;;;;;;;;5091802;28;20203;-83
2022/09/19 12:08:44;;;;;;;0.60;0.60;;;;;;;;;;5092028;28;20199;-83
2022/09/19 12:11:14;;;;;;;0.77;0.63;;;;;;;;;;5091550;28;20234;-82
2022/09/19 12:13:46;;;;;;;0.83;0.83;;;;;;;;;;5091377;28;20586;-82
2022/09/19 12:16:20;;;;;;;0.60;0.60;;;;;;;;;;5091979;28;20200;-81
2022/09/19 12:18:50;;;;;;;2.53;0.80;;;;;;;;;;5091833;28;20241;-83
2022/09/19 12:21:19;;;;;;;0.60;0.60;;;;;;;;;;5091370;28;20613;-82
2022/09/19 12:26:34;;;;;;;0.47;0.47;;;;;;;;;;5091612;28;20200;-83
2022/09/19 12:29:07;;;;;;;1.17;0.77;;;;;;;;;;5091402;28;20235;-82
2022/09/19 12:31:38;;;;;;;0.50;0.50;;;;;;;;;;5091292;28;20657;-81
2022/09/19 12:34:11;;;;;;;0.53;0.53;;;;;;;;;;5091073;28;20682;-82
2022/09/19 12:36:44;;;;;;;0.60;0.60;;;;;;;;;;5091547;28;20284;-81
2022/09/19 12:39:14;;;;;;;0.53;0.53;;;;;;;;;;5090759;28;20201;-82
2022/09/19 12:41:47;;;;;;;1.40;0.93;;;;;;;;;;5091164;28;20231;-82
2022/09/19 12:44:20;;;;;;;0.53;0.53;;;;;;;;;;5091133;28;20307;-83
2022/09/19 12:46:55;;;;;;;0.67;0.67;;;;;;;;;;5091064;28;20196;-83
2022/09/19 12:49:29;;;;;;;0.60;0.60;;;;;;;;;;5091097;28;20206;-82
2022/09/19 12:52:00;;;;;;;0.50;0.50;;;;;;;;;;5090546;28;20227;-82
2022/09/19 12:54:34;;;;;;;0.40;0.40;;;;;;;;;;5090985;28;20197;-81
2022/09/19 12:57:05;;;;;;;0.57;0.57;;;;;;;;;;5090796;28;20200;-87
2022/09/19 12:59:36;;;;;;;0.53;0.53;;;;;;;;;;5090831;28;20283;-82
2022/09/19 13:02:14;;;;;;;0.50;0.50;;;;;;;;;;5090952;28;20232;-82
2022/09/19 13:04:44;;;;;;;0.70;0.70;;;;;;;;;;5090973;28;20202;-82
2022/09/19 13:07:15;;;;;;;0.50;0.50;;;;;;;;;;5090520;28;20261;-83
2022/09/19 13:09:52;;;;;;;0.50;0.50;;;;;;;;;;5090775;28;20287;-82
2022/09/19 13:12:25;;;;;;;0.70;0.70;;;;;;;;;;5090661;28;20224;-82
2022/09/19 13:14:56;;;;;;;0.60;0.60;;;;;;;;;;5090788;28;20200;-82
2022/09/19 13:25:46;;;;;;;1.23;0.60;;;;;;;;;;5090493;28;20226;-82
2022/09/19 13:28:34;;;;;;;0.60;0.60;;;;;;;;;;5089995;28;20611;-82
2022/09/19 13:31:11;;;;;;;0.70;0.70;;;;;;;;;;5090635;28;20200;-82
2022/09/19 13:33:48;;;;;;;0.57;0.57;;;;;;;;;;5090505;28;20196;-83
2022/09/19 13:36:18;;;;;;;0.60;0.60;;;;;;;;;;5090568;28;20191;-82
2022/09/19 13:38:46;;;;;;;0.40;0.40;;;;;;;;;;5089997;28;20204;-82
2022/09/19 13:41:23;;;;;;;0.80;0.80;;;;;;;;;;5090244;28;20212;-82
2022/09/19 13:44:03;;;;;;;0.40;0.40;;;;;;;;;;5090374;28;20682;-82
2022/09/19 13:46:36;;;;;;;0.50;0.50;;;;;;;;;;5090454;28;20200;-83
2022/09/19 13:49:08;;;;;;;0.60;0.60;;;;;;;;;;5090183;28;20204;-82
2022/09/19 13:51:41;;;;;;;0.70;0.70;;;;;;;;;;5090149;28;20277;-83
2022/09/19 13:54:44;;;;;;;0.50;0.50;;;;;;;;;;5090236;28;20196;-82
2022/09/19 13:57:21;;;;;;;0.60;0.60;;;;;;;;;;5090383;28;20200;-83
2022/09/19 13:59:51;;;;;;;0.50;0.50;;;;;;;;;;5090013;28;20739;-82
2022/09/19 14:02:25;;;;;;;0.60;0.60;;;;;;;;;;5089939;28;20192;-82
2022/09/19 14:04:55;;;;;;;0.53;0.53;;;;;;;;;;5090223;28;20599;-82
2022/09/19 14:07:27;;;;;;;0.53;0.53;;;;;;;;;;5090304;28;20196;-84
2022/09/19 14:09:55;;;;;;;0.70;0.70;;;;;;;;;;5090002;28;20341;-82
2022/09/19 14:12:56;;;;;;;1.23;0.80;;;;;;;;;;5089850;28;20228;-83
2022/09/19 14:15:51;;;;;;;0.50;0.50;;;;;;;;;;5090248;28;20233;-83
2022/09/19 14:18:54;;;;;;;0.60;0.60;;;;;;;;;;5090042;28;20201;-82
2022/09/19 14:21:57;;;;;;;0.77;0.50;;;;;;;;;;5047377;28;20258;-83
2022/09/19 14:24:37;;;;;;;0.73;0.73;;;;;;;;;;5089919;28;20204;-82
2022/09/19 14:27:12;;;;;;;0.60;0.60;;;;;;;;;;5089942;28;20766;-82
2022/09/19 14:29:45;;;;;;;0.43;0.43;;;;;;;;;;5090000;28;20223;-82
2022/09/19 14:32:21;;;;;;;0.50;0.50;;;;;;;;;;5089973;28;20224;-82
2022/09/19 14:35:15;;;;;;;0.60;0.60;;;;;;;;;;5089436;28;20203;-82
2022/09/19 14:37:53;;;;;;;0.67;0.67;;;;;;;;;;5090001;28;20211;-82
2022/09/19 14:40:44;;;;;;;1.07;1.07;;;;;;;;;;5092430;28;20261;-83
2022/09/19 14:43:33;;;;;;;0.43;0.43;;;;;;;;;;5073602;28;20205;-82
2022/09/19 14:46:20;;;;;;;0.50;0.50;;;;;;;;;;5082481;28;20208;-83
2022/09/19 14:48:54;;;;;;;0.60;0.60;;;;;;;;;;5093227;28;20594;-82
2022/09/19 14:51:30;;;;;;;0.80;0.73;;;;;;;;;;5093508;28;20228;-82
2022/09/19 14:54:04;;;;;;;0.80;0.80;;;;;;;;;;5092944;28;20192;-82
2022/09/19 14:56:31;;;;;;;0.40;0.40;;;;;;;;;;5093393;28;20200;-82
2022/09/19 14:58:59;;;;;;;0.60;0.60;;;;;;;;;;5092792;28;20287;-82
2022/09/19 15:01:28;;;;;;;0.70;0.70;;;;;;;;;;5093597;28;20201;-82
2022/09/19 15:03:57;;;;;;;0.60;0.60;;;;;;;;;;5092892;28;20201;-83
2022/09/19 15:06:30;;;;;;;0.40;0.40;;;;;;;;;;5091962;28;20189;-83
2022/09/19 15:08:57;;;;;;;0.70;0.70;;;;;;;;;;5088339;28;20651;-82
2022/09/19 15:11:25;;;;;;;0.53;0.53;;;;;;;;;;5093343;28;20204;-82
2022/09/19 15:13:55;;;;;;;0.70;0.70;;;;;;;;;;5093060;28;20232;-81
2022/09/19 15:16:22;;;;;;;0.60;0.60;;;;;;;;;;5092571;28;20582;-82
2022/09/19 15:18:50;;;;;;;0.80;0.80;;;;;;;;;;5092392;28;20231;-82
2022/09/19 15:21:18;;;;;;;0.50;0.50;;;;;;;;;;5092578;28;20698;-82
2022/09/19 15:23:47;;;;;;;0.60;0.60;;;;;;;;;;5092546;28;20606;-83
2022/09/19 15:26:16;;;;;;;0.80;0.80;;;;;;;;;;5092518;28;20220;-82
2022/09/19 15:28:55;;;;;;;1.30;1.20;;;;;;;;;;5092850;28;20228;-81
2022/09/19 15:31:25;;;;;;;0.80;0.80;;;;;;;;;;5092628;28;20200;-82
2022/09/19 15:33:57;;;;;;;1.00;1.00;;;;;;;;;;5092863;28;20224;-81
2022/09/19 15:36:24;;;;;;;1.17;0.90;;;;;;;;;;5092479;28;20658;-82
2022/09/19 15:38:54;;;;;;;0.70;0.70;;;;;;;;;;5091964;28;20204;-81